Aérodrome :
LOGIN :

S'inscrire | Disclaimer

   EN    FR    IT 

 










Légende :    VFR   VFR Marginal   IFR   IFR Intensif   IFR Très Intensif
Visi : 
Plafond : 
>= 8 km
>= 3000ft
5 à 8 km
1000 à 3000 ft
1500m à 5 km
500 à 1000 ft
800 à 1500m
200 à 500 ft
< 800m
< 200 ft
Symboles :   Orages  Brouillard  Fortes neiges  Fortes précipitations  Vent > 20 kt
SIGMETs :   Divers  Orages  Givrage  Turbulence  Onde Orograph.  Cendres Volcan.







- Altitude de l'aérodrome : 580 ft
- Voir les cartes d'approche


LFOA - Avord

DERNIER METAR :
  • 271400Z AUTO 26009KT 220V300 9999 BKN033 BKN047 BKN056 20/13 Q1012 TEMPO 4000 -SHRA BKN025TCU

METARs EXPIRÉS :
  • 271330Z AUTO 26007KT 220V290 9999 FEW029 BKN034 BKN044 20/13 Q1012 TEMPO 4000 -SHRA BKN025TCU
  • 271300Z AUTO 27009KT 9999 SCT031 SCT041 BKN049 19/13 Q1012 TEMPO 4000 -SHRA BKN025TCU
  • 271230Z AUTO 27010KT 240V300 9999 SCT029 SCT037 BKN060 19/13 Q1013 TEMPO 4000 -SHRA BKN025TCU
  • 271200Z AUTO 28008KT 9999 FEW024 BKN038 BKN044 18/13 Q1013 TEMPO 4000 -SHRA BKN025TCU
  • 271130Z AUTO 26007KT 220V290 9999 SCT021 BKN028 BKN054 18/13 Q1013 TEMPO 4000 -SHRA BKN025TCU

TAF TAF LFOA
Valide du 27 à 09h jusqu'au 28 à 09h UTC


270800Z 2709/2809 29008KT 9999 OVC008
TEMPO 2709/2710 2500 -RADZ
BECMG 2710/2711 FEW020TCU
TEMPO 2711/2724 27010G20KT 4000 -SHRA BKN025TCU
BECMG 2800/2802 SCT020
BECMG 2807/2809 SCT030TCU
Pas de NOTAMs connus pour ce terrain.



MET'MAP, la Météo Aéronautique d'un coup d'oeil ! - Copyright ORBIFLY Décembre 2007 - Disclaimer

ORBIFLY MET'MAP TEAM :

Programmation & Développement : Alexandra Zaïnal
Conception & Développement : Baudouin d'Aumeries
Co-Programmation & Développement : Marc-Olivier Méhu
Soutien technique & logistique : Manuel Goepfert

Contact : metmap@orbifly.com




SOURCES & CREDITS :

   NOAA